createdAt,value
2023-01-07T00:00:07.103Z,100555.95
2023-01-07T00:16:42.006Z,100567.71
2023-01-07T00:19:58.186Z,100573.89
2023-01-07T00:23:08.974Z,100572.54
2023-01-07T00:33:00.238Z,100598.25
2023-01-07T00:36:07.007Z,100598.41
2023-01-07T00:39:16.161Z,100602.27
2023-01-07T00:42:13.192Z,100602.80
2023-01-07T00:44:50.331Z,100607.85
2023-01-07T00:47:30.284Z,100615.53
2023-01-07T00:50:04.169Z,100615.44
2023-01-07T00:52:38.855Z,100615.20
2023-01-07T00:55:25.042Z,100619.74
2023-01-07T00:58:12.763Z,100619.86
2023-01-07T01:00:53.607Z,100614.23
2023-01-07T01:03:32.736Z,100607.34
2023-01-07T01:06:19.275Z,100604.59
2023-01-07T01:09:01.168Z,100608.84
2023-01-07T01:11:47.850Z,100606.31
2023-01-07T01:14:36.346Z,100612.70
2023-01-07T01:17:28.030Z,100621.77
2023-01-07T01:20:22.251Z,100639.88
2023-01-07T01:23:07.460Z,100636.06
2023-01-07T01:26:12.195Z,100641.30
2023-01-07T01:29:02.174Z,100632.91
2023-01-07T01:31:53.025Z,100634.98
2023-01-07T01:35:01.970Z,100636.85
2023-01-07T01:37:58.129Z,100629.11
2023-01-07T01:40:47.614Z,100633.17
2023-01-07T01:43:46.901Z,100633.44
2023-01-07T01:46:47.137Z,100641.14
2023-01-07T01:49:51.556Z,100640.81
2023-01-07T01:53:12.029Z,100643.70
2023-01-07T01:56:35.606Z,100645.96
2023-01-07T01:59:42.641Z,100647.40
2023-01-07T02:02:47.223Z,100642.70
2023-01-07T02:05:45.889Z,100641.33
2023-01-07T02:08:49.874Z,100643.92
2023-01-07T02:12:04.049Z,100647.52
2023-01-07T02:15:38.325Z,100644.48
2023-01-07T02:18:37.672Z,100643.55
2023-01-07T02:22:14.795Z,100642.60
2023-01-07T02:25:30.994Z,100640.43
2023-01-07T02:28:42.894Z,100639.96
2023-01-07T02:31:30.150Z,100637.55
2023-01-07T02:34:44.330Z,100639.36
2023-01-07T02:37:54.468Z,100635.63
2023-01-07T02:41:02.646Z,100634.98
2023-01-07T02:44:14.363Z,100631.77
2023-01-07T02:47:31.012Z,100638.08
2023-01-07T02:50:23.037Z,100633.40
2023-01-07T02:53:15.020Z,100632.34
2023-01-07T02:56:16.939Z,100634.34
2023-01-07T02:59:24.814Z,100636.72
2023-01-07T03:02:44.605Z,100637.73
2023-01-07T03:06:03.431Z,100634.73
2023-01-07T03:09:15.864Z,100638.41
2023-01-07T03:12:38.294Z,100636.98
2023-01-07T03:15:42.824Z,100637.65
2023-01-07T03:18:50.319Z,100641.23
2023-01-07T03:21:45.385Z,100646.66
2023-01-07T03:24:41.230Z,100649.20
2023-01-07T03:27:46.235Z,100645.88
2023-01-07T03:30:45.706Z,100646.91
2023-01-07T03:33:45.086Z,100643.73
2023-01-07T03:37:02.425Z,100639.98
2023-01-07T03:39:59.676Z,100644.36
2023-01-07T03:42:57.855Z,100645.21
2023-01-07T03:45:50.374Z,100641.31
2023-01-07T03:48:40.390Z,100651.21
2023-01-07T03:51:36.930Z,100649.89
2023-01-07T03:54:26.342Z,100642.91
2023-01-07T03:57:17.623Z,100643.09
2023-01-07T04:00:14.777Z,100637.83
2023-01-07T04:03:01.729Z,100636.77
2023-01-07T04:06:00.790Z,100640.01
2023-01-07T04:08:54.689Z,100639.82
2023-01-07T04:11:55.186Z,100643.21
2023-01-07T04:14:59.235Z,100649.16
2023-01-07T04:17:56.970Z,100650.34
2023-01-07T04:21:04.989Z,100646.48
2023-01-07T04:24:08.612Z,100649.77
2023-01-07T04:27:32.181Z,100651.80
2023-01-07T04:30:39.054Z,100648.33
2023-01-07T04:33:39.835Z,100641.71
2023-01-07T04:36:30.938Z,100638.70
2023-01-07T04:39:25.880Z,100641.95
2023-01-07T04:42:22.873Z,100639.45
2023-01-07T04:45:18.561Z,100639.89
2023-01-07T04:48:11.407Z,100640.90
2023-01-07T04:51:03.593Z,100644.88
2023-01-07T04:53:55.207Z,100648.09
2023-01-07T04:56:55.298Z,100650.09
2023-01-07T04:59:46.223Z,100648.17
2023-01-07T05:02:39.480Z,100650.70
2023-01-07T05:05:28.383Z,100643.71
2023-01-07T05:08:19.588Z,100644.36
2023-01-07T05:11:10.398Z,100642.36
2023-01-07T05:14:12.262Z,100650.86
2023-01-07T05:17:15.027Z,100651.27
2023-01-07T05:20:23.114Z,100656.56
2023-01-07T05:23:40.043Z,100668.73
2023-01-07T05:26:26.347Z,100677.77
2023-01-07T05:29:01.328Z,100677.94
2023-01-07T05:31:47.114Z,100679.73
2023-01-07T05:34:33.158Z,100679.45
2023-01-07T05:37:12.752Z,100684.27
2023-01-07T05:39:58.079Z,100685.11
2023-01-07T05:42:44.764Z,100691.20
2023-01-07T05:45:41.042Z,100696.24
2023-01-07T05:48:33.703Z,100697.84
2023-01-07T05:51:26.209Z,100705.06
2023-01-07T05:54:24.787Z,100703.38
2023-01-07T05:57:33.555Z,100708.15
2023-01-07T06:00:31.621Z,100707.70
2023-01-07T06:03:30.140Z,100706.65
2023-01-07T06:06:21.236Z,100698.94
2023-01-07T06:09:46.232Z,100699.41
2023-01-07T06:12:40.245Z,100702.93
2023-01-07T06:45:55.231Z,100726.20
2023-01-07T07:12:49.936Z,100760.50
2023-01-07T07:20:59.284Z,100766.58
2023-01-07T07:29:04.768Z,100769.81
2023-01-07T07:44:00.110Z,100771.91
2023-01-07T07:51:22.514Z,100781.72
2023-01-07T07:55:51.593Z,100778.78
2023-01-07T08:02:19.736Z,100787.56
2023-01-07T08:08:49.354Z,100775.46
2023-01-07T08:11:55.943Z,100778.87
2023-01-07T08:14:52.682Z,100778.17
2023-01-07T08:18:26.526Z,100780.05
2023-01-07T08:25:19.729Z,100794.66
2023-01-07T08:28:48.624Z,100790.86
2023-01-07T09:54:01.009Z,100804.19
2023-01-07T09:56:55.460Z,100798.79
2023-01-07T11:02:30.412Z,100756.08
2023-01-07T11:05:03.864Z,100754.04
2023-01-07T11:53:16.072Z,100720.27
2023-01-07T12:00:48.892Z,100718.67
2023-01-07T12:03:22.643Z,100717.58
2023-01-07T12:11:20.565Z,100702.23
2023-01-07T14:39:55.381Z,100732.89
2023-01-07T14:42:45.804Z,100733.46
2023-01-07T14:45:40.916Z,100729.31
2023-01-07T14:48:18.934Z,100731.08
2023-01-07T14:51:38.383Z,100724.79
2023-01-07T14:54:24.956Z,100725.55
2023-01-07T14:57:40.839Z,100726.08
2023-01-07T15:01:04.738Z,100738.48
2023-01-07T15:04:43.535Z,100740.88
2023-01-07T15:11:57.636Z,100743.52
2023-01-07T15:15:33.947Z,100743.83
2023-01-07T18:28:48.296Z,100688.42
2023-01-07T18:43:19.972Z,100687.98
2023-01-07T18:47:45.462Z,100684.65
2023-01-07T18:50:01.721Z,100680.83
2023-01-07T21:47:53.924Z,100618.91
